sensor_id;sensor_type;location;lat;lon;timestamp;P1;durP1;ratioP1;P2;durP2;ratioP2
19161;SDS011;9713;48.140;11.530;2022-11-15T00:02:12;8.10;;;5.37;;
19161;SDS011;9713;48.140;11.530;2022-11-15T00:05:54;9.80;;;4.90;;
19161;SDS011;9713;48.140;11.530;2022-11-15T00:09:44;11.23;;;6.40;;
19161;SDS011;9713;48.140;11.530;2022-11-15T00:13:27;9.50;;;4.70;;
19161;SDS011;9713;48.140;11.530;2022-11-15T00:17:11;9.87;;;4.80;;
19161;SDS011;9713;48.140;11.530;2022-11-15T00:20:53;6.83;;;4.60;;
19161;SDS011;9713;48.140;11.530;2022-11-15T00:24:36;6.47;;;4.00;;
19161;SDS011;9713;48.140;11.530;2022-11-15T00:28:20;7.03;;;4.10;;
19161;SDS011;9713;48.140;11.530;2022-11-15T00:32:03;4.97;;;3.60;;
19161;SDS011;9713;48.140;11.530;2022-11-15T00:35:46;6.03;;;4.10;;
19161;SDS011;9713;48.140;11.530;2022-11-15T00:39:28;7.20;;;4.40;;
19161;SDS011;9713;48.140;11.530;2022-11-15T00:43:14;7.20;;;4.43;;
19161;SDS011;9713;48.140;11.530;2022-11-15T00:46:58;5.40;;;3.90;;
19161;SDS011;9713;48.140;11.530;2022-11-15T00:50:41;6.53;;;4.33;;
19161;SDS011;9713;48.140;11.530;2022-11-15T00:54:23;6.77;;;4.40;;
19161;SDS011;9713;48.140;11.530;2022-11-15T00:58:06;8.60;;;4.80;;
19161;SDS011;9713;48.140;11.530;2022-11-15T01:01:48;6.40;;;4.10;;
19161;SDS011;9713;48.140;11.530;2022-11-15T01:05:33;8.23;;;4.30;;
19161;SDS011;9713;48.140;11.530;2022-11-15T01:09:15;7.30;;;4.27;;
19161;SDS011;9713;48.140;11.530;2022-11-15T01:12:58;7.60;;;4.17;;
19161;SDS011;9713;48.140;11.530;2022-11-15T01:16:41;8.60;;;4.10;;
19161;SDS011;9713;48.140;11.530;2022-11-15T01:20:24;5.93;;;4.30;;
19161;SDS011;9713;48.140;11.530;2022-11-15T01:24:09;6.73;;;3.93;;
19161;SDS011;9713;48.140;11.530;2022-11-15T01:27:55;6.77;;;4.20;;
19161;SDS011;9713;48.140;11.530;2022-11-15T01:31:37;7.50;;;4.20;;
19161;SDS011;9713;48.140;11.530;2022-11-15T01:35:20;6.60;;;4.50;;
19161;SDS011;9713;48.140;11.530;2022-11-15T01:39:06;7.13;;;4.87;;
19161;SDS011;9713;48.140;11.530;2022-11-15T01:42:50;5.50;;;3.90;;
19161;SDS011;9713;48.140;11.530;2022-11-15T01:46:33;7.47;;;4.00;;
19161;SDS011;9713;48.140;11.530;2022-11-15T01:50:18;5.70;;;4.07;;
19161;SDS011;9713;48.140;11.530;2022-11-15T01:54:19;6.00;;;3.87;;
19161;SDS011;9713;48.140;11.530;2022-11-15T01:58:04;5.33;;;3.40;;
19161;SDS011;9713;48.140;11.530;2022-11-15T02:01:47;7.20;;;3.80;;
19161;SDS011;9713;48.140;11.530;2022-11-15T02:05:30;5.77;;;3.30;;
19161;SDS011;9713;48.140;11.530;2022-11-15T02:09:16;4.43;;;3.13;;
19161;SDS011;9713;48.140;11.530;2022-11-15T02:13:08;5.00;;;3.30;;
19161;SDS011;9713;48.140;11.530;2022-11-15T02:16:53;4.03;;;2.93;;
19161;SDS011;9713;48.140;11.530;2022-11-15T02:20:43;5.50;;;3.20;;
19161;SDS011;9713;48.140;11.530;2022-11-15T02:24:40;5.80;;;3.70;;
19161;SDS011;9713;48.140;11.530;2022-11-15T02:28:50;5.37;;;3.60;;
19161;SDS011;9713;48.140;11.530;2022-11-15T02:32:40;5.10;;;3.57;;
19161;SDS011;9713;48.140;11.530;2022-11-15T02:36:28;5.37;;;3.70;;
19161;SDS011;9713;48.140;11.530;2022-11-15T02:40:17;4.17;;;3.10;;
19161;SDS011;9713;48.140;11.530;2022-11-15T02:44:06;5.70;;;3.40;;
19161;SDS011;9713;48.140;11.530;2022-11-15T02:47:54;5.20;;;3.30;;
19161;SDS011;9713;48.140;11.530;2022-11-15T02:51:38;4.80;;;3.23;;
19161;SDS011;9713;48.140;11.530;2022-11-15T02:55:26;4.77;;;3.43;;
19161;SDS011;9713;48.140;11.530;2022-11-15T03:03:42;3.53;;;2.93;;
19161;SDS011;9713;48.140;11.530;2022-11-15T03:07:32;4.83;;;3.27;;
19161;SDS011;9713;48.140;11.530;2022-11-15T03:11:17;5.07;;;2.90;;
19161;SDS011;9713;48.140;11.530;2022-11-15T03:15:01;4.77;;;3.10;;
19161;SDS011;9713;48.140;11.530;2022-11-15T03:18:49;4.87;;;3.37;;
19161;SDS011;9713;48.140;11.530;2022-11-15T03:22:37;4.60;;;3.03;;
19161;SDS011;9713;48.140;11.530;2022-11-15T03:26:22;5.87;;;3.37;;
19161;SDS011;9713;48.140;11.530;2022-11-15T03:30:08;5.03;;;3.57;;
19161;SDS011;9713;48.140;11.530;2022-11-15T03:33:53;4.80;;;3.27;;
19161;SDS011;9713;48.140;11.530;2022-11-15T03:37:39;5.00;;;3.27;;
19161;SDS011;9713;48.140;11.530;2022-11-15T03:41:24;4.43;;;3.17;;
19161;SDS011;9713;48.140;11.530;2022-11-15T03:45:13;3.73;;;2.90;;
19161;SDS011;9713;48.140;11.530;2022-11-15T03:49:00;4.27;;;2.97;;
19161;SDS011;9713;48.140;11.530;2022-11-15T03:52:47;5.83;;;3.00;;
19161;SDS011;9713;48.140;11.530;2022-11-15T03:56:31;4.87;;;3.23;;
19161;SDS011;9713;48.140;11.530;2022-11-15T04:00:14;5.47;;;3.50;;
19161;SDS011;9713;48.140;11.530;2022-11-15T04:03:58;5.57;;;3.47;;
19161;SDS011;9713;48.140;11.530;2022-11-15T04:07:41;6.13;;;3.50;;
19161;SDS011;9713;48.140;11.530;2022-11-15T04:11:24;5.80;;;3.40;;
19161;SDS011;9713;48.140;11.530;2022-11-15T04:15:07;4.20;;;2.83;;
19161;SDS011;9713;48.140;11.530;2022-11-15T04:18:51;4.27;;;3.17;;
19161;SDS011;9713;48.140;11.530;2022-11-15T04:22:51;3.80;;;2.80;;
19161;SDS011;9713;48.140;11.530;2022-11-15T04:26:52;5.30;;;3.30;;
19161;SDS011;9713;48.140;11.530;2022-11-15T04:30:34;4.23;;;2.90;;
19161;SDS011;9713;48.140;11.530;2022-11-15T04:34:17;4.57;;;2.47;;
19161;SDS011;9713;48.140;11.530;2022-11-15T04:38:02;3.63;;;2.47;;
19161;SDS011;9713;48.140;11.530;2022-11-15T04:41:46;3.43;;;2.40;;
19161;SDS011;9713;48.140;11.530;2022-11-15T04:45:28;3.27;;;2.40;;
19161;SDS011;9713;48.140;11.530;2022-11-15T04:49:11;4.30;;;2.57;;
19161;SDS011;9713;48.140;11.530;2022-11-15T04:52:54;3.70;;;2.70;;
19161;SDS011;9713;48.140;11.530;2022-11-15T04:56:38;4.13;;;2.93;;
19161;SDS011;9713;48.140;11.530;2022-11-15T05:00:24;4.07;;;2.77;;
19161;SDS011;9713;48.140;11.530;2022-11-15T05:04:07;4.37;;;2.70;;
19161;SDS011;9713;48.140;11.530;2022-11-15T05:08:01;5.30;;;2.93;;
19161;SDS011;9713;48.140;11.530;2022-11-15T05:11:46;4.83;;;2.67;;
19161;SDS011;9713;48.140;11.530;2022-11-15T05:15:28;5.43;;;3.10;;
19161;SDS011;9713;48.140;11.530;2022-11-15T05:19:11;5.33;;;2.67;;
19161;SDS011;9713;48.140;11.530;2022-11-15T05:22:54;3.77;;;2.57;;
19161;SDS011;9713;48.140;11.530;2022-11-15T05:26:37;6.90;;;2.70;;
19161;SDS011;9713;48.140;11.530;2022-11-15T05:30:21;5.33;;;2.50;;
19161;SDS011;9713;48.140;11.530;2022-11-15T05:34:04;3.50;;;2.30;;
19161;SDS011;9713;48.140;11.530;2022-11-15T05:37:47;4.57;;;2.60;;
19161;SDS011;9713;48.140;11.530;2022-11-15T05:41:30;3.47;;;2.70;;
19161;SDS011;9713;48.140;11.530;2022-11-15T05:45:14;3.67;;;2.60;;
19161;SDS011;9713;48.140;11.530;2022-11-15T05:49:05;4.63;;;2.53;;
19161;SDS011;9713;48.140;11.530;2022-11-15T05:52:48;3.97;;;2.53;;
19161;SDS011;9713;48.140;11.530;2022-11-15T05:56:31;4.23;;;2.87;;
19161;SDS011;9713;48.140;11.530;2022-11-15T06:00:14;5.43;;;3.53;;
19161;SDS011;9713;48.140;11.530;2022-11-15T06:03:57;7.03;;;4.57;;
19161;SDS011;9713;48.140;11.530;2022-11-15T06:07:41;13.83;;;7.00;;
19161;SDS011;9713;48.140;11.530;2022-11-15T06:11:25;6.23;;;3.57;;
19161;SDS011;9713;48.140;11.530;2022-11-15T06:15:08;5.20;;;3.10;;
19161;SDS011;9713;48.140;11.530;2022-11-15T06:18:51;5.17;;;3.63;;
19161;SDS011;9713;48.140;11.530;2022-11-15T06:22:34;7.87;;;3.20;;
19161;SDS011;9713;48.140;11.530;2022-11-15T06:26:18;9.93;;;4.07;;
19161;SDS011;9713;48.140;11.530;2022-11-15T06:30:00;9.03;;;3.87;;
19161;SDS011;9713;48.140;11.530;2022-11-15T06:33:43;6.13;;;3.30;;
19161;SDS011;9713;48.140;11.530;2022-11-15T06:37:28;5.60;;;3.40;;
19161;SDS011;9713;48.140;11.530;2022-11-15T06:41:11;9.57;;;4.83;;
19161;SDS011;9713;48.140;11.530;2022-11-15T06:44:55;13.60;;;7.37;;
19161;SDS011;9713;48.140;11.530;2022-11-15T06:48:38;7.80;;;4.97;;
19161;SDS011;9713;48.140;11.530;2022-11-15T06:52:22;8.83;;;4.63;;
19161;SDS011;9713;48.140;11.530;2022-11-15T06:56:05;6.93;;;4.13;;
19161;SDS011;9713;48.140;11.530;2022-11-15T06:59:49;6.30;;;3.60;;
19161;SDS011;9713;48.140;11.530;2022-11-15T07:03:33;10.03;;;3.70;;
19161;SDS011;9713;48.140;11.530;2022-11-15T07:07:16;6.00;;;3.50;;
19161;SDS011;9713;48.140;11.530;2022-11-15T07:11:03;15.07;;;3.90;;
19161;SDS011;9713;48.140;11.530;2022-11-15T07:14:47;10.07;;;4.30;;
19161;SDS011;9713;48.140;11.530;2022-11-15T07:18:30;5.53;;;3.00;;
19161;SDS011;9713;48.140;11.530;2022-11-15T07:22:14;7.57;;;3.20;;
19161;SDS011;9713;48.140;11.530;2022-11-15T07:25:57;7.70;;;3.90;;
19161;SDS011;9713;48.140;11.530;2022-11-15T07:29:40;11.77;;;4.13;;
19161;SDS011;9713;48.140;11.530;2022-11-15T07:33:23;8.37;;;4.90;;
19161;SDS011;9713;48.140;11.530;2022-11-15T07:37:10;9.27;;;5.40;;
19161;SDS011;9713;48.140;11.530;2022-11-15T07:40:56;8.63;;;4.80;;
19161;SDS011;9713;48.140;11.530;2022-11-15T07:44:39;9.07;;;5.30;;
19161;SDS011;9713;48.140;11.530;2022-11-15T07:48:22;10.20;;;4.90;;
19161;SDS011;9713;48.140;11.530;2022-11-15T07:52:05;9.50;;;4.00;;
19161;SDS011;9713;48.140;11.530;2022-11-15T07:55:48;6.73;;;4.03;;
19161;SDS011;9713;48.140;11.530;2022-11-15T07:59:32;7.70;;;3.60;;
19161;SDS011;9713;48.140;11.530;2022-11-15T08:03:16;9.13;;;4.10;;
19161;SDS011;9713;48.140;11.530;2022-11-15T08:06:59;6.70;;;3.97;;
19161;SDS011;9713;48.140;11.530;2022-11-15T08:10:41;7.17;;;3.80;;
19161;SDS011;9713;48.140;11.530;2022-11-15T08:14:24;8.60;;;4.00;;
19161;SDS011;9713;48.140;11.530;2022-11-15T08:18:10;8.13;;;3.90;;
19161;SDS011;9713;48.140;11.530;2022-11-15T08:21:54;5.93;;;3.80;;
19161;SDS011;9713;48.140;11.530;2022-11-15T08:25:37;11.70;;;3.70;;
19161;SDS011;9713;48.140;11.530;2022-11-15T08:29:19;7.93;;;4.07;;
19161;SDS011;9713;48.140;11.530;2022-11-15T08:33:02;10.77;;;3.80;;
19161;SDS011;9713;48.140;11.530;2022-11-15T08:36:47;12.57;;;4.27;;
19161;SDS011;9713;48.140;11.530;2022-11-15T08:40:29;6.73;;;3.90;;
19161;SDS011;9713;48.140;11.530;2022-11-15T08:44:12;10.77;;;3.27;;
19161;SDS011;9713;48.140;11.530;2022-11-15T08:47:55;6.23;;;3.20;;
19161;SDS011;9713;48.140;11.530;2022-11-15T08:51:37;6.93;;;3.20;;
19161;SDS011;9713;48.140;11.530;2022-11-15T08:55:22;6.53;;;3.40;;
19161;SDS011;9713;48.140;11.530;2022-11-15T08:59:05;6.37;;;3.37;;
19161;SDS011;9713;48.140;11.530;2022-11-15T09:02:48;6.77;;;2.80;;
19161;SDS011;9713;48.140;11.530;2022-11-15T09:06:30;3.03;;;2.50;;
19161;SDS011;9713;48.140;11.530;2022-11-15T09:10:13;4.60;;;2.77;;
19161;SDS011;9713;48.140;11.530;2022-11-15T09:13:57;4.97;;;2.90;;
19161;SDS011;9713;48.140;11.530;2022-11-15T09:17:40;5.43;;;3.10;;
19161;SDS011;9713;48.140;11.530;2022-11-15T09:21:23;6.37;;;3.10;;
19161;SDS011;9713;48.140;11.530;2022-11-15T09:25:06;15.97;;;4.73;;
19161;SDS011;9713;48.140;11.530;2022-11-15T09:28:51;19.80;;;5.00;;
19161;SDS011;9713;48.140;11.530;2022-11-15T09:32:35;10.30;;;4.20;;
19161;SDS011;9713;48.140;11.530;2022-11-15T09:36:19;7.97;;;3.53;;
19161;SDS011;9713;48.140;11.530;2022-11-15T09:40:02;6.27;;;3.60;;
19161;SDS011;9713;48.140;11.530;2022-11-15T09:43:47;9.30;;;4.00;;
19161;SDS011;9713;48.140;11.530;2022-11-15T09:47:44;10.07;;;3.90;;
19161;SDS011;9713;48.140;11.530;2022-11-15T09:51:39;8.03;;;3.60;;
19161;SDS011;9713;48.140;11.530;2022-11-15T09:55:31;8.87;;;3.30;;
19161;SDS011;9713;48.140;11.530;2022-11-15T09:59:23;5.93;;;2.90;;
19161;SDS011;9713;48.140;11.530;2022-11-15T10:03:15;13.07;;;3.17;;
19161;SDS011;9713;48.140;11.530;2022-11-15T10:07:01;10.03;;;3.50;;
19161;SDS011;9713;48.140;11.530;2022-11-15T10:10:46;6.80;;;3.63;;
19161;SDS011;9713;48.140;11.530;2022-11-15T10:14:50;8.60;;;3.73;;
19161;SDS011;9713;48.140;11.530;2022-11-15T10:18:41;6.97;;;3.87;;
19161;SDS011;9713;48.140;11.530;2022-11-15T10:22:31;6.17;;;3.80;;
19161;SDS011;9713;48.140;11.530;2022-11-15T10:26:17;9.37;;;3.90;;
19161;SDS011;9713;48.140;11.530;2022-11-15T10:30:00;7.40;;;3.87;;
19161;SDS011;9713;48.140;11.530;2022-11-15T10:33:44;5.13;;;3.10;;
19161;SDS011;9713;48.140;11.530;2022-11-15T10:37:27;8.03;;;3.33;;
19161;SDS011;9713;48.140;11.530;2022-11-15T10:41:11;9.73;;;4.40;;
19161;SDS011;9713;48.140;11.530;2022-11-15T10:44:54;9.00;;;3.13;;
19161;SDS011;9713;48.140;11.530;2022-11-15T10:48:37;5.40;;;3.10;;
19161;SDS011;9713;48.140;11.530;2022-11-15T10:52:23;7.23;;;3.03;;
19161;SDS011;9713;48.140;11.530;2022-11-15T10:56:06;5.60;;;2.77;;
19161;SDS011;9713;48.140;11.530;2022-11-15T10:59:52;3.73;;;2.67;;
19161;SDS011;9713;48.140;11.530;2022-11-15T11:03:36;4.73;;;2.20;;
19161;SDS011;9713;48.140;11.530;2022-11-15T11:07:21;4.03;;;2.10;;
19161;SDS011;9713;48.140;11.530;2022-11-15T11:11:06;3.67;;;2.17;;
19161;SDS011;9713;48.140;11.530;2022-11-15T11:14:49;2.90;;;2.10;;
19161;SDS011;9713;48.140;11.530;2022-11-15T11:18:33;4.27;;;2.37;;
19161;SDS011;9713;48.140;11.530;2022-11-15T11:22:20;3.13;;;2.03;;
19161;SDS011;9713;48.140;11.530;2022-11-15T11:26:11;3.70;;;2.00;;
19161;SDS011;9713;48.140;11.530;2022-11-15T11:30:07;4.33;;;1.83;;
19161;SDS011;9713;48.140;11.530;2022-11-15T11:33:55;3.10;;;1.70;;
19161;SDS011;9713;48.140;11.530;2022-11-15T11:37:45;4.00;;;2.07;;
19161;SDS011;9713;48.140;11.530;2022-11-15T11:41:37;2.30;;;1.80;;
19161;SDS011;9713;48.140;11.530;2022-11-15T11:45:31;4.63;;;1.80;;
19161;SDS011;9713;48.140;11.530;2022-11-15T11:49:37;4.20;;;2.00;;
19161;SDS011;9713;48.140;11.530;2022-11-15T11:53:25;4.83;;;2.53;;
19161;SDS011;9713;48.140;11.530;2022-11-15T11:57:12;5.50;;;2.93;;
19161;SDS011;9713;48.140;11.530;2022-11-15T12:00:59;3.60;;;1.90;;
19161;SDS011;9713;48.140;11.530;2022-11-15T12:04:56;2.80;;;1.93;;
19161;SDS011;9713;48.140;11.530;2022-11-15T12:08:49;4.93;;;2.83;;
19161;SDS011;9713;48.140;11.530;2022-11-15T12:12:36;2.70;;;1.53;;
19161;SDS011;9713;48.140;11.530;2022-11-15T12:16:26;2.63;;;1.63;;
19161;SDS011;9713;48.140;11.530;2022-11-15T12:20:14;2.20;;;1.50;;
19161;SDS011;9713;48.140;11.530;2022-11-15T12:24:00;3.70;;;1.70;;
19161;SDS011;9713;48.140;11.530;2022-11-15T12:27:46;3.20;;;1.70;;
19161;SDS011;9713;48.140;11.530;2022-11-15T12:31:33;1.97;;;1.60;;
19161;SDS011;9713;48.140;11.530;2022-11-15T12:35:24;2.90;;;1.70;;
19161;SDS011;9713;48.140;11.530;2022-11-15T12:39:10;2.23;;;1.50;;
19161;SDS011;9713;48.140;11.530;2022-11-15T12:42:57;5.23;;;1.70;;
19161;SDS011;9713;48.140;11.530;2022-11-15T12:47:01;3.17;;;1.70;;
19161;SDS011;9713;48.140;11.530;2022-11-15T12:50:55;3.93;;;1.57;;
19161;SDS011;9713;48.140;11.530;2022-11-15T12:59:06;1.90;;;1.50;;
19161;SDS011;9713;48.140;11.530;2022-11-15T13:02:49;2.60;;;1.70;;
19161;SDS011;9713;48.140;11.530;2022-11-15T13:06:37;2.90;;;1.83;;
19161;SDS011;9713;48.140;11.530;2022-11-15T13:10:31;4.47;;;2.10;;
19161;SDS011;9713;48.140;11.530;2022-11-15T13:14:40;2.37;;;1.80;;
19161;SDS011;9713;48.140;11.530;2022-11-15T13:18:35;3.47;;;1.63;;
19161;SDS011;9713;48.140;11.530;2022-11-15T13:22:20;3.50;;;1.70;;
19161;SDS011;9713;48.140;11.530;2022-11-15T13:26:24;3.60;;;1.80;;
19161;SDS011;9713;48.140;11.530;2022-11-15T13:30:14;3.30;;;2.10;;
19161;SDS011;9713;48.140;11.530;2022-11-15T13:34:03;1.93;;;1.50;;
19161;SDS011;9713;48.140;11.530;2022-11-15T13:38:25;2.27;;;1.47;;
19161;SDS011;9713;48.140;11.530;2022-11-15T13:42:13;3.00;;;1.80;;
19161;SDS011;9713;48.140;11.530;2022-11-15T13:46:10;5.20;;;2.10;;
19161;SDS011;9713;48.140;11.530;2022-11-15T13:49:56;3.50;;;2.50;;
19161;SDS011;9713;48.140;11.530;2022-11-15T13:53:40;5.17;;;2.53;;
19161;SDS011;9713;48.140;11.530;2022-11-15T13:57:29;5.37;;;2.20;;
19161;SDS011;9713;48.140;11.530;2022-11-15T14:01:18;4.07;;;1.60;;
19161;SDS011;9713;48.140;11.530;2022-11-15T14:05:05;6.17;;;2.17;;
19161;SDS011;9713;48.140;11.530;2022-11-15T14:09:14;3.30;;;2.10;;
19161;SDS011;9713;48.140;11.530;2022-11-15T14:13:10;2.93;;;1.80;;
19161;SDS011;9713;48.140;11.530;2022-11-15T14:17:19;2.60;;;2.07;;
19161;SDS011;9713;48.140;11.530;2022-11-15T14:21:05;3.70;;;2.10;;
19161;SDS011;9713;48.140;11.530;2022-11-15T14:25:04;4.23;;;2.70;;
19161;SDS011;9713;48.140;11.530;2022-11-15T14:28:49;3.03;;;2.40;;
19161;SDS011;9713;48.140;11.530;2022-11-15T14:32:39;2.77;;;1.87;;
19161;SDS011;9713;48.140;11.530;2022-11-15T14:36:26;4.37;;;2.60;;
19161;SDS011;9713;48.140;11.530;2022-11-15T14:40:12;2.47;;;1.90;;
19161;SDS011;9713;48.140;11.530;2022-11-15T14:43:56;3.17;;;1.87;;
19161;SDS011;9713;48.140;11.530;2022-11-15T14:47:40;2.30;;;1.70;;
19161;SDS011;9713;48.140;11.530;2022-11-15T14:51:23;2.40;;;1.90;;
19161;SDS011;9713;48.140;11.530;2022-11-15T14:55:12;2.60;;;1.70;;
19161;SDS011;9713;48.140;11.530;2022-11-15T14:58:59;4.23;;;2.10;;
19161;SDS011;9713;48.140;11.530;2022-11-15T15:02:44;2.53;;;1.90;;
19161;SDS011;9713;48.140;11.530;2022-11-15T15:06:28;3.73;;;2.23;;
19161;SDS011;9713;48.140;11.530;2022-11-15T15:10:12;3.83;;;2.63;;
19161;SDS011;9713;48.140;11.530;2022-11-15T15:14:15;6.73;;;3.90;;
19161;SDS011;9713;48.140;11.530;2022-11-15T15:18:00;8.63;;;3.97;;
19161;SDS011;9713;48.140;11.530;2022-11-15T15:21:43;7.13;;;4.50;;
19161;SDS011;9713;48.140;11.530;2022-11-15T15:25:27;8.47;;;4.83;;
19161;SDS011;9713;48.140;11.530;2022-11-15T15:29:11;6.80;;;5.13;;
19161;SDS011;9713;48.140;11.530;2022-11-15T15:32:54;7.23;;;5.47;;
19161;SDS011;9713;48.140;11.530;2022-11-15T15:36:38;7.67;;;5.33;;
19161;SDS011;9713;48.140;11.530;2022-11-15T15:40:22;11.80;;;6.20;;
19161;SDS011;9713;48.140;11.530;2022-11-15T15:44:05;8.77;;;5.73;;
19161;SDS011;9713;48.140;11.530;2022-11-15T15:47:48;9.37;;;6.07;;
19161;SDS011;9713;48.140;11.530;2022-11-15T15:51:33;8.83;;;6.07;;
19161;SDS011;9713;48.140;11.530;2022-11-15T15:55:17;10.27;;;6.00;;
19161;SDS011;9713;48.140;11.530;2022-11-15T15:59:00;8.67;;;5.60;;
19161;SDS011;9713;48.140;11.530;2022-11-15T16:02:42;12.13;;;6.80;;
19161;SDS011;9713;48.140;11.530;2022-11-15T16:06:32;10.80;;;6.17;;
19161;SDS011;9713;48.140;11.530;2022-11-15T16:10:20;12.03;;;6.50;;
19161;SDS011;9713;48.140;11.530;2022-11-15T16:14:03;13.97;;;6.37;;
19161;SDS011;9713;48.140;11.530;2022-11-15T16:17:47;13.97;;;6.37;;
19161;SDS011;9713;48.140;11.530;2022-11-15T16:21:31;11.47;;;7.03;;
19161;SDS011;9713;48.140;11.530;2022-11-15T16:25:14;11.10;;;6.83;;
19161;SDS011;9713;48.140;11.530;2022-11-15T16:28:58;12.40;;;6.50;;
19161;SDS011;9713;48.140;11.530;2022-11-15T16:32:41;11.60;;;7.20;;
19161;SDS011;9713;48.140;11.530;2022-11-15T16:36:25;9.67;;;6.17;;
19161;SDS011;9713;48.140;11.530;2022-11-15T16:40:24;19.87;;;11.60;;
19161;SDS011;9713;48.140;11.530;2022-11-15T16:44:10;19.53;;;9.23;;
19161;SDS011;9713;48.140;11.530;2022-11-15T16:47:52;13.17;;;7.80;;
19161;SDS011;9713;48.140;11.530;2022-11-15T16:51:35;15.00;;;9.47;;
19161;SDS011;9713;48.140;11.530;2022-11-15T16:55:20;16.27;;;8.97;;
19161;SDS011;9713;48.140;11.530;2022-11-15T16:59:03;14.20;;;8.23;;
19161;SDS011;9713;48.140;11.530;2022-11-15T17:02:48;29.10;;;16.27;;
19161;SDS011;9713;48.140;11.530;2022-11-15T17:06:31;23.03;;;12.40;;
19161;SDS011;9713;48.140;11.530;2022-11-15T17:10:15;19.33;;;9.83;;
19161;SDS011;9713;48.140;11.530;2022-11-15T17:13:58;31.37;;;13.93;;
19161;SDS011;9713;48.140;11.530;2022-11-15T17:17:41;72.37;;;33.67;;
19161;SDS011;9713;48.140;11.530;2022-11-15T17:21:27;31.37;;;14.33;;
19161;SDS011;9713;48.140;11.530;2022-11-15T17:25:14;18.00;;;9.10;;
19161;SDS011;9713;48.140;11.530;2022-11-15T17:28:57;17.30;;;9.63;;
19161;SDS011;9713;48.140;11.530;2022-11-15T17:32:42;20.73;;;10.63;;
19161;SDS011;9713;48.140;11.530;2022-11-15T17:36:26;17.33;;;9.23;;
19161;SDS011;9713;48.140;11.530;2022-11-15T17:40:09;22.87;;;10.50;;
19161;SDS011;9713;48.140;11.530;2022-11-15T17:43:54;19.87;;;11.40;;
19161;SDS011;9713;48.140;11.530;2022-11-15T17:47:38;25.67;;;10.80;;
19161;SDS011;9713;48.140;11.530;2022-11-15T17:51:22;18.40;;;9.93;;
19161;SDS011;9713;48.140;11.530;2022-11-15T17:55:06;18.23;;;11.03;;
19161;SDS011;9713;48.140;11.530;2022-11-15T17:58:50;24.57;;;13.30;;
19161;SDS011;9713;48.140;11.530;2022-11-15T18:02:38;17.57;;;10.50;;
19161;SDS011;9713;48.140;11.530;2022-11-15T18:06:22;20.47;;;11.67;;
19161;SDS011;9713;48.140;11.530;2022-11-15T18:10:07;19.67;;;10.83;;
19161;SDS011;9713;48.140;11.530;2022-11-15T18:13:50;22.03;;;10.37;;
19161;SDS011;9713;48.140;11.530;2022-11-15T18:17:34;20.83;;;11.33;;
19161;SDS011;9713;48.140;11.530;2022-11-15T18:21:20;18.80;;;11.90;;
19161;SDS011;9713;48.140;11.530;2022-11-15T18:25:04;20.30;;;10.93;;
19161;SDS011;9713;48.140;11.530;2022-11-15T18:28:48;22.80;;;11.97;;
19161;SDS011;9713;48.140;11.530;2022-11-15T18:32:31;19.87;;;12.30;;
19161;SDS011;9713;48.140;11.530;2022-11-15T18:36:18;26.27;;;12.27;;
19161;SDS011;9713;48.140;11.530;2022-11-15T18:40:01;18.37;;;10.83;;
19161;SDS011;9713;48.140;11.530;2022-11-15T18:43:45;17.30;;;10.17;;
19161;SDS011;9713;48.140;11.530;2022-11-15T18:47:31;21.87;;;11.27;;
19161;SDS011;9713;48.140;11.530;2022-11-15T18:51:15;21.90;;;10.77;;
19161;SDS011;9713;48.140;11.530;2022-11-15T18:54:59;20.17;;;11.13;;
19161;SDS011;9713;48.140;11.530;2022-11-15T18:58:43;16.47;;;9.50;;
19161;SDS011;9713;48.140;11.530;2022-11-15T19:02:26;18.50;;;9.97;;
19161;SDS011;9713;48.140;11.530;2022-11-15T19:06:13;18.60;;;11.27;;
19161;SDS011;9713;48.140;11.530;2022-11-15T19:09:56;16.13;;;9.73;;
19161;SDS011;9713;48.140;11.530;2022-11-15T19:13:39;20.30;;;9.40;;
19161;SDS011;9713;48.140;11.530;2022-11-15T19:17:22;16.27;;;8.70;;
19161;SDS011;9713;48.140;11.530;2022-11-15T19:21:05;14.70;;;7.90;;
19161;SDS011;9713;48.140;11.530;2022-11-15T19:24:56;11.70;;;7.87;;
19161;SDS011;9713;48.140;11.530;2022-11-15T19:28:39;16.43;;;7.60;;
19161;SDS011;9713;48.140;11.530;2022-11-15T19:32:23;12.47;;;7.63;;
19161;SDS011;9713;48.140;11.530;2022-11-15T19:36:07;14.37;;;7.97;;
19161;SDS011;9713;48.140;11.530;2022-11-15T19:39:53;17.40;;;8.60;;
19161;SDS011;9713;48.140;11.530;2022-11-15T19:43:41;13.57;;;8.13;;
19161;SDS011;9713;48.140;11.530;2022-11-15T19:47:28;12.97;;;8.57;;
19161;SDS011;9713;48.140;11.530;2022-11-15T19:51:12;58.73;;;26.97;;
19161;SDS011;9713;48.140;11.530;2022-11-15T19:54:57;20.03;;;10.67;;
19161;SDS011;9713;48.140;11.530;2022-11-15T19:58:41;15.13;;;8.23;;
19161;SDS011;9713;48.140;11.530;2022-11-15T20:02:26;13.93;;;7.80;;
19161;SDS011;9713;48.140;11.530;2022-11-15T20:06:09;12.53;;;8.20;;
19161;SDS011;9713;48.140;11.530;2022-11-15T20:09:53;13.83;;;8.40;;
19161;SDS011;9713;48.140;11.530;2022-11-15T20:13:36;15.03;;;8.40;;
19161;SDS011;9713;48.140;11.530;2022-11-15T20:17:20;14.03;;;8.00;;
19161;SDS011;9713;48.140;11.530;2022-11-15T20:21:03;11.93;;;8.07;;
19161;SDS011;9713;48.140;11.530;2022-11-15T20:24:46;20.83;;;12.53;;
19161;SDS011;9713;48.140;11.530;2022-11-15T20:28:29;15.10;;;9.53;;
19161;SDS011;9713;48.140;11.530;2022-11-15T20:32:12;13.83;;;7.33;;
19161;SDS011;9713;48.140;11.530;2022-11-15T20:35:57;14.60;;;7.97;;
19161;SDS011;9713;48.140;11.530;2022-11-15T20:39:42;13.10;;;8.33;;
19161;SDS011;9713;48.140;11.530;2022-11-15T20:43:35;11.30;;;7.47;;
19161;SDS011;9713;48.140;11.530;2022-11-15T20:47:21;12.73;;;7.50;;
19161;SDS011;9713;48.140;11.530;2022-11-15T20:51:12;11.00;;;6.90;;
19161;SDS011;9713;48.140;11.530;2022-11-15T20:54:59;10.97;;;6.93;;
19161;SDS011;9713;48.140;11.530;2022-11-15T20:58:43;15.77;;;8.80;;
19161;SDS011;9713;48.140;11.530;2022-11-15T21:02:26;13.23;;;7.90;;
19161;SDS011;9713;48.140;11.530;2022-11-15T21:06:10;13.27;;;7.70;;
19161;SDS011;9713;48.140;11.530;2022-11-15T21:09:55;11.07;;;6.33;;
19161;SDS011;9713;48.140;11.530;2022-11-15T21:13:55;12.17;;;6.93;;
19161;SDS011;9713;48.140;11.530;2022-11-15T21:17:38;12.67;;;7.50;;
19161;SDS011;9713;48.140;11.530;2022-11-15T21:21:22;21.23;;;9.80;;
19161;SDS011;9713;48.140;11.530;2022-11-15T21:25:05;23.33;;;11.47;;
19161;SDS011;9713;48.140;11.530;2022-11-15T21:28:48;19.10;;;9.70;;
19161;SDS011;9713;48.140;11.530;2022-11-15T21:32:31;21.53;;;10.27;;
19161;SDS011;9713;48.140;11.530;2022-11-15T21:36:14;12.70;;;7.90;;
19161;SDS011;9713;48.140;11.530;2022-11-15T21:39:58;15.10;;;6.57;;
19161;SDS011;9713;48.140;11.530;2022-11-15T21:43:41;13.60;;;7.03;;
19161;SDS011;9713;48.140;11.530;2022-11-15T21:47:24;10.77;;;6.97;;
19161;SDS011;9713;48.140;11.530;2022-11-15T21:51:08;11.80;;;6.63;;
19161;SDS011;9713;48.140;11.530;2022-11-15T21:54:54;11.77;;;6.73;;
19161;SDS011;9713;48.140;11.530;2022-11-15T21:58:39;13.30;;;7.00;;
19161;SDS011;9713;48.140;11.530;2022-11-15T22:02:22;11.10;;;6.50;;
19161;SDS011;9713;48.140;11.530;2022-11-15T22:06:05;9.73;;;6.70;;
19161;SDS011;9713;48.140;11.530;2022-11-15T22:09:55;12.37;;;7.20;;
19161;SDS011;9713;48.140;11.530;2022-11-15T22:13:40;15.23;;;7.97;;
19161;SDS011;9713;48.140;11.530;2022-11-15T22:17:23;12.37;;;7.27;;
19161;SDS011;9713;48.140;11.530;2022-11-15T22:21:27;11.30;;;7.80;;
19161;SDS011;9713;48.140;11.530;2022-11-15T22:25:12;11.07;;;6.87;;
19161;SDS011;9713;48.140;11.530;2022-11-15T22:29:00;11.13;;;6.90;;
19161;SDS011;9713;48.140;11.530;2022-11-15T22:32:43;13.10;;;7.07;;
19161;SDS011;9713;48.140;11.530;2022-11-15T22:36:26;14.87;;;7.17;;
19161;SDS011;9713;48.140;11.530;2022-11-15T22:40:29;10.10;;;6.67;;